DA501 UNNE-UNNE

Flight info

Callsign DA501
Flight time 0h 4m
Altitude 3500
Route UNNE/UNNE
Aircraft DA62/L-SDE3FGHIRWY/LB1

Departure

Time 2026-04-30 11:18
Airport Yeltsovka Airport (UNNE)

Arrival

Time 2026-04-30 11:23
Airport Yeltsovka Airport (UNNE)
Time Latitude Longitude Altitude Speed Heading
2026-04-30 11:08 55.07039 82.99189 586 ft 0 kts 233°
2026-04-30 11:13 55.07038 82.99187 586 ft 2 kts 233°
2026-04-30 11:13 55.07039 82.99252 586 ft 8 kts 358°
2026-04-30 11:13 55.07196 82.99297 586 ft 29 kts
2026-04-30 11:14 55.07355 82.99360 586 ft 12 kts 12°
2026-04-30 11:16 55.07422 82.99383 586 ft 19 kts 13°
2026-04-30 11:17 55.07619 82.99457 586 ft 29 kts 17°
2026-04-30 11:17 55.07762 82.99544 587 ft 16 kts 71°
2026-04-30 11:17 55.07875 82.99739 591 ft 48 kts 16°
2026-04-30 11:17 55.08382 82.99991 633 ft 97 kts 14°
2026-04-30 11:18 55.09078 83.00315 849 ft 108 kts
2026-04-30 11:18 55.09076 82.98922 1381 ft 103 kts 216°
2026-04-30 11:18 55.08708 82.97774 1645 ft 117 kts 245°
2026-04-30 11:19 55.08395 82.96351 1872 ft 135 kts 247°
2026-04-30 11:19 55.08032 82.94747 2010 ft 147 kts 244°
2026-04-30 11:19 55.07597 82.93077 2116 ft 156 kts 243°
2026-04-30 11:19 55.07471 82.91314 2577 ft 142 kts 290°
2026-04-30 11:20 55.08021 82.89732 2620 ft 160 kts 307°
2026-04-30 11:20 55.08700 82.88200 2893 ft 161 kts 304°
2026-04-30 11:20 55.09564 82.86791 2811 ft 178 kts 324°
2026-04-30 11:20 55.10603 82.85489 2716 ft 187 kts 323°
2026-04-30 11:21 55.11606 82.84143 2652 ft 164 kts 316°
2026-04-30 11:21 55.12095 82.82539 2084 ft 145 kts 273°
2026-04-30 11:21 55.11881 82.80894 1821 ft 138 kts 245°
2026-04-30 11:21 55.11518 82.79556 1452 ft 103 kts 229°
2026-04-30 11:22 55.10980 82.78824 913 ft 103 kts 200°
2026-04-30 11:22 55.10219 82.78463 651 ft 120 kts 184°
2026-04-30 11:22 55.09445 82.78417 410 ft 94 kts 181°
2026-04-30 11:22 55.08839 82.78421 334 ft 78 kts 180°
2026-04-30 11:23 55.08519 82.78405 313 ft 0 kts 185°
2026-04-30 11:23 55.08469 82.78410 307 ft 30 kts 168°
2026-04-30 11:23 55.08171 82.78529 318 ft 9 kts 107°
2026-04-30 11:24 55.08168 82.78543 316 ft 0 kts 110°
2026-04-30 11:25 55.08130 82.78720 311 ft 0 kts 110°
2026-04-30 11:45 55.08151 82.78730 310 ft 0 kts 331°
2026-04-30 11:45 55.08173 82.78706 312 ft 20 kts 324°
2026-04-30 11:45 55.08471 82.78423 305 ft 75 kts 332°
2026-04-30 11:46 55.08804 82.78100 444 ft 86 kts 328°
2026-04-30 11:46 55.09355 82.78363 609 ft 104 kts 55°
2026-04-30 11:46 55.09445 82.79995 799 ft 116 kts 139°
2026-04-30 11:46 55.08981 82.80537 824 ft 128 kts 149°
2026-04-30 11:47 55.08197 82.81462 821 ft 147 kts 139°
2026-04-30 11:47 55.07579 82.82713 1418 ft 128 kts 129°
2026-04-30 11:47 55.06969 82.84136 1110 ft 166 kts 124°
2026-04-30 11:47 55.06464 82.85776 1257 ft 166 kts 117°
2026-04-30 11:48 55.05886 82.87599 1061 ft 174 kts 125°
2026-04-30 11:48 55.05264 82.89428 881 ft 182 kts 107°
2026-04-30 11:48 55.04707 82.91047 1035 ft 168 kts 153°
2026-04-30 11:48 55.03830 82.92397 784 ft 178 kts 134°
2026-04-30 11:49 55.03091 82.94111 808 ft 172 kts 132°
2026-04-30 11:49 55.02123 82.95245 826 ft 172 kts 154°
2026-04-30 11:49 55.01082 82.96168 1158 ft 126 kts 155°
2026-04-30 11:49 55.00410 82.96970 1583 ft 145 kts 118°
2026-04-30 11:50 54.99906 82.98522 1347 ft 162 kts 155°
2026-04-30 11:50 54.98729 82.98592 864 ft 138 kts 202°
2026-04-30 11:50 54.98070 82.97645 478 ft 109 kts 220°
2026-04-30 11:50 54.97664 82.96693 331 ft 82 kts 241°
2026-04-30 11:51 54.97584 82.96476 340 ft 4 kts 229°
2026-04-30 11:51 54.97583 82.96475 340 ft 0 kts 229°
2026-04-30 11:51 54.97636 82.95920 296 ft 755 kts 102°
2026-04-30 11:51 54.97868 82.98006 317 ft 0 kts 82°
2026-04-30 11:52 54.97823 82.98026 320 ft 29 kts 102°
2026-04-30 11:52 54.97702 82.98656 321 ft 78 kts 124°
2026-04-30 11:52 54.97436 82.99073 439 ft 83 kts 179°
2026-04-30 11:52 54.97378 82.99073 420 ft 88 kts 187°
2026-04-30 11:53 54.97181 82.98172 515 ft 110 kts 276°
2026-04-30 11:53 54.97313 82.96726 658 ft 127 kts 279°
2026-04-30 11:53 54.97881 82.95528 749 ft 151 kts 326°
2026-04-30 11:53 54.98889 82.94566 553 ft 176 kts 329°
2026-04-30 11:54 54.99878 82.93442 879 ft 65 kts 332°
2026-04-30 11:54 55.00157 82.93556 862 ft 124 kts 93°
2026-04-30 11:54 54.99416 82.94481 621 ft 154 kts 155°
2026-04-30 11:54 54.98423 82.95430 386 ft 172 kts 153°
2026-04-30 11:55 54.97368 82.96424 481 ft 131 kts 155°
2026-04-30 11:55 54.97669 82.95785 784 ft 146 kts 327°
2026-04-30 11:55 54.98608 82.94845 737 ft 153 kts 325°
2026-04-30 11:55 54.99041 82.93913 749 ft 121 kts 141°
2026-04-30 11:56 54.98293 82.94838 764 ft 140 kts 173°
2026-04-30 11:56 54.97729 82.93804 753 ft 143 kts 254°
2026-04-30 11:56 54.97221 82.93170 728 ft 100 kts 159°
2026-04-30 11:56 54.96548 82.93481 495 ft 85 kts 167°
2026-04-30 11:57 54.96312 82.93707 486 ft 15 kts 137°
2026-04-30 11:57 54.96344 82.93791 486 ft 10 kts 322°
2026-04-30 11:57 54.96364 82.93753 487 ft 0 kts 316°
2026-04-30 11:57 54.96663 82.93265 724 ft 111 kts 317°
2026-04-30 11:58 54.97122 82.93885 617 ft 90 kts 69°
2026-04-30 11:58 54.97321 82.94881 558 ft 87 kts 88°
2026-04-30 11:58 54.97119 82.95755 662 ft 93 kts 176°
2026-04-30 11:58 54.96425 82.95633 844 ft 115 kts 193°
2026-04-30 11:59 54.95583 82.94996 784 ft 146 kts 214°
2026-04-30 11:59 54.94784 82.93808 840 ft 156 kts 234°
2026-04-30 11:59 54.94380 82.92013 879 ft 165 kts 253°
2026-04-30 11:59 54.94238 82.90000 853 ft 172 kts 271°
2026-04-30 12:00 54.94362 82.87886 786 ft 175 kts 278°
2026-04-30 12:00 54.94978 82.86177 653 ft 182 kts 335°
2026-04-30 12:00 54.96220 82.85805 635 ft 181 kts 354°
2026-04-30 12:00 54.97456 82.85713 737 ft 177 kts 358°
2026-04-30 12:01 54.98689 82.85621 773 ft 176 kts 353°
2026-04-30 12:01 54.99920 82.85349 558 ft 187 kts 353°
2026-04-30 12:01 55.01182 82.85356 521 ft 178 kts 357°
2026-04-30 12:01 55.02356 82.86036 387 ft 182 kts 27°
2026-04-30 12:02 55.02971 82.87020 402 ft 177 kts 49°